Time;durP1;ratioP1;P1;durP2;ratioP2;P2;SDS_P1;SDS_P2;PMS_P1;PMS_P2;Temp;Humidity;BMP_temperature;BMP_pressure;BME280_temperature;BME280_humidity;BME280_pressure;Samples;Min_cycle;Max_cycle;Signal;HPM_P1;HPM_P2
2022/04/18 00:01:21;;;;;;;19.05;11.22;;;;;;;22.99;51.75;99015.13;1791252;78;25514;-85
2022/04/18 00:03:47;;;;;;;18.57;11.22;;;;;;;22.98;51.73;99007.95;1791410;80;25633;-82
2022/04/18 00:06:12;;;;;;;20.35;10.78;;;;;;;22.99;51.73;99004.53;1791283;80;25800;-81
2022/04/18 00:08:38;;;;;;;17.98;10.43;;;;;;;22.98;51.72;99009.93;1791441;80;25770;-81
2022/04/18 00:11:04;;;;;;;17.80;10.75;;;;;;;22.97;51.71;99008.34;1791429;80;27455;-82
2022/04/18 00:13:30;;;;;;;16.90;10.58;;;;;;;22.97;51.72;99004.14;1791175;80;25417;-83
2022/04/18 00:15:56;;;;;;;16.80;10.28;;;;;;;22.96;51.72;99003.92;1791407;80;25416;-89
2022/04/18 00:18:22;;;;;;;20.17;10.70;;;;;;;22.96;51.73;98999.73;1791377;80;25932;-89
2022/04/18 00:20:48;;;;;;;18.57;10.93;;;;;;;22.94;51.72;99001.52;1791418;80;25729;-87
2022/04/18 00:23:14;;;;;;;19.45;11.00;;;;;;;22.94;51.74;98998.72;1791298;80;27385;-88
2022/04/18 00:25:40;;;;;;;17.42;10.28;;;;;;;22.93;51.72;98997.13;1791295;80;25768;-90
2022/04/18 00:28:06;;;;;;;16.25;10.63;;;;;;;22.92;51.70;98997.73;1791421;80;26080;-85
2022/04/18 00:30:32;;;;;;;19.55;10.72;;;;;;;22.93;51.72;98992.94;1791250;80;25885;-89
2022/04/18 00:32:58;;;;;;;18.73;10.45;;;;;;;22.91;51.73;98986.95;1791309;80;25443;-90
2022/04/18 00:35:23;;;;;;;17.82;10.75;;;;;;;22.91;51.71;98984.94;1791365;80;27387;-89
2022/04/18 00:37:49;;;;;;;16.23;10.00;;;;;;;22.91;51.72;98985.55;1791288;80;25419;-88
2022/04/18 00:40:15;;;;;;;19.10;10.70;;;;;;;22.89;51.70;98981.75;1791379;80;25643;-91
2022/04/18 00:42:43;;;;;;;17.77;10.75;;;;;;;22.89;51.70;98979.55;1791403;80;25725;-90
2022/04/18 00:45:10;;;;;;;17.23;10.15;;;;;;;22.88;51.73;98975.94;1791261;80;25723;-90
2022/04/18 00:47:36;;;;;;;17.30;10.85;;;;;;;22.88;51.73;98972.36;1788018;80;27376;-82
2022/04/18 00:50:03;;;;;;;16.45;9.95;;;;;;;22.88;51.70;98973.76;1791380;80;25661;-82
2022/04/18 00:52:31;;;;;;;15.95;10.10;;;;;;;22.87;51.71;98963.76;1791389;80;25645;-81
2022/04/18 00:55:00;;;;;;;17.10;10.10;;;;;;;22.86;51.70;98964.95;1764290;80;26495;-84
2022/04/18 00:57:28;;;;;;;16.62;10.80;;;;;;;22.85;51.73;98964.14;1791427;80;25390;-92
2022/04/18 00:59:54;;;;;;;17.62;10.40;;;;;;;22.86;51.72;98955.17;1790952;79;28274;-91
2022/04/18 01:02:20;;;;;;;17.98;10.13;;;;;;;22.84;51.71;98959.76;1791310;80;25730;-90
2022/04/18 01:04:46;;;;;;;16.62;10.40;;;;;;;22.85;51.72;98954.37;1791233;80;25665;-89
2022/04/18 01:07:12;;;;;;;16.75;10.43;;;;;;;22.85;51.69;98948.00;1791414;80;25795;-82
2022/04/18 01:09:39;;;;;;;15.70;9.78;;;;;;;22.84;51.71;98942.19;1791192;80;25647;-82
2022/04/18 01:12:06;;;;;;;17.45;10.30;;;;;;;22.84;51.70;98946.38;1791310;80;27376;-82
2022/04/18 01:14:32;;;;;;;17.73;10.78;;;;;;;22.84;51.72;98935.20;1791406;80;25675;-82
2022/04/18 01:16:58;;;;;;;17.57;10.28;;;;;;;22.82;51.68;98932.80;1791358;80;25449;-86
2022/04/18 01:19:25;;;;;;;17.60;10.75;;;;;;;22.81;51.69;98932.60;1791304;80;25724;-83
2022/04/18 01:21:51;;;;;;;16.52;10.23;;;;;;;22.80;51.73;98926.81;1791429;80;25384;-83
2022/04/18 01:29:47;;;;;;;17.10;11.35;;;;;;;22.78;51.73;98925.00;1790943;80;25590;-82
2022/04/18 01:32:13;;;;;;;17.85;10.70;;;;;;;22.78;51.73;98931.40;1791256;80;25788;-82
2022/04/18 01:34:39;;;;;;;17.75;10.53;;;;;;;22.78;51.73;98925.00;1791659;80;25701;-83
2022/04/18 01:37:05;;;;;;;18.55;10.48;;;;;;;22.77;51.71;98918.59;1791338;80;28336;-81
2022/04/18 01:39:31;;;;;;;18.00;10.08;;;;;;;22.77;51.74;98917.82;1791460;80;25759;-82
2022/04/18 01:41:57;;;;;;;17.00;10.63;;;;;;;22.75;51.73;98918.20;1791568;80;25685;-86
2022/04/18 01:44:22;;;;;;;17.35;10.50;;;;;;;22.76;51.75;98912.01;1791575;80;25753;-84
2022/04/18 01:46:50;;;;;;;16.62;9.98;;;;;;;22.76;51.75;98909.22;1791404;80;25740;-85
2022/04/18 01:49:16;;;;;;;16.67;10.60;;;;;;;22.75;51.72;98912.63;1791157;80;27368;-84
2022/04/18 01:51:42;;;;;;;17.37;10.50;;;;;;;22.76;51.72;98905.02;1791360;80;25854;-82
2022/04/18 01:54:08;;;;;;;15.55;10.45;;;;;;;22.75;51.70;98903.44;1791538;80;25455;-86
2022/04/18 01:56:34;;;;;;;15.38;9.95;;;;;;;22.75;51.70;98904.83;1791379;80;25681;-86
2022/04/18 01:59:00;;;;;;;17.52;10.53;;;;;;;22.74;51.72;98897.65;1791553;80;25467;-86
2022/04/18 02:01:25;;;;;;;16.77;10.32;;;;;;;22.74;51.72;98894.23;1791540;80;28230;-89
2022/04/18 02:03:51;;;;;;;16.65;10.43;;;;;;;22.74;51.71;98899.05;1791313;80;25419;-89
2022/04/18 02:06:17;;;;;;;15.65;10.15;;;;;;;22.73;51.71;98894.05;1791536;80;25415;-88
2022/04/18 02:08:43;;;;;;;15.25;9.50;;;;;;;22.72;51.70;98890.25;1791382;80;26534;-87
2022/04/18 02:11:09;;;;;;;16.87;10.13;;;;;;;22.73;51.70;98887.06;1791443;80;25668;-86
2022/04/18 02:13:35;;;;;;;17.90;10.45;;;;;;;22.72;51.70;98889.66;1791437;79;27472;-89
2022/04/18 02:16:01;;;;;;;20.08;11.20;;;;;;;22.72;51.70;98890.25;1791429;80;25674;-93
2022/04/18 02:18:27;;;;;;;19.98;10.60;;;;;;;22.72;51.68;98896.64;1791494;80;25646;-82
2022/04/18 02:20:55;;;;;;;17.32;10.18;;;;;;;22.71;51.70;98889.44;1791301;80;25743;-85
2022/04/18 02:23:21;;;;;;;16.82;10.40;;;;;;;22.71;51.68;98889.44;1791154;80;25416;-94
2022/04/18 02:25:47;;;;;;;17.00;10.40;;;;;;;22.70;51.69;98889.23;1791471;80;28210;-94
2022/04/18 02:28:14;;;;;;;18.42;11.38;;;;;;;22.69;51.69;98881.45;1791440;80;25403;-81
2022/04/18 02:30:39;;;;;;;16.82;9.75;;;;;;;22.68;51.69;98878.45;1791527;80;25428;-81
2022/04/18 02:33:06;;;;;;;17.60;10.05;;;;;;;22.70;51.67;98875.27;1791431;80;25638;-84
2022/04/18 02:35:32;;;;;;;17.90;10.32;;;;;;;22.69;51.66;98874.46;1791180;80;25386;-85
2022/04/18 02:37:58;;;;;;;16.30;10.55;;;;;;;22.69;51.67;98875.86;1791516;80;28241;-81
2022/04/18 02:40:24;;;;;;;16.37;9.93;;;;;;;22.67;51.68;98869.88;1791419;80;25472;-83
2022/04/18 02:42:50;;;;;;;16.52;9.73;;;;;;;22.67;51.67;98867.09;1791470;80;25478;-83
2022/04/18 02:45:18;;;;;;;18.77;10.63;;;;;;;22.66;51.70;98863.29;1791042;80;25706;-87
2022/04/18 02:47:46;;;;;;;14.78;9.80;;;;;;;22.68;51.68;98869.27;1788497;80;25871;-82
2022/04/18 02:50:12;;;;;;;16.93;10.63;;;;;;;22.67;51.68;98863.48;1791337;80;27417;-83
2022/04/18 02:52:39;;;;;;;16.07;10.45;;;;;;;22.67;51.68;98874.07;1791460;80;25673;-82
2022/04/18 02:55:07;;;;;;;15.85;10.18;;;;;;;22.68;51.65;98860.30;1791485;78;25590;-84
2022/04/18 02:57:33;;;;;;;17.82;9.90;;;;;;;22.68;51.64;98863.68;1791023;80;26664;-83
2022/04/18 03:00:00;;;;;;;15.55;10.25;;;;;;;22.67;51.66;98865.69;1791299;79;25403;-83
2022/04/18 03:02:26;;;;;;;15.70;9.93;;;;;;;22.66;51.66;98868.29;1791180;80;27291;-83
2022/04/18 03:04:52;;;;;;;17.30;9.83;;;;;;;22.65;51.64;98858.29;1791356;80;25816;-82
2022/04/18 03:07:19;;;;;;;16.57;10.40;;;;;;;22.65;51.65;98861.70;1791480;80;25440;-85
2022/04/18 03:09:45;;;;;;;16.07;9.98;;;;;;;22.65;51.65;98861.08;1791034;80;25715;-86
2022/04/18 03:12:11;;;;;;;16.20;9.70;;;;;;;22.65;51.66;98853.32;1791528;80;25684;-85
2022/04/18 03:14:37;;;;;;;17.30;10.63;;;;;;;22.66;51.67;98852.12;1791593;80;27323;-89
2022/04/18 03:17:04;;;;;;;17.17;11.25;;;;;;;22.65;51.62;98844.94;1791346;80;25672;-85
2022/04/18 03:19:30;;;;;;;15.98;10.20;;;;;;;22.65;51.63;98842.15;1791441;80;25675;-92
2022/04/18 03:21:56;;;;;;;16.85;9.93;;;;;;;22.65;51.63;98839.36;1791420;80;25679;-90
2022/04/18 03:24:21;;;;;;;15.23;10.00;;;;;;;22.66;51.64;98838.16;1791392;80;25598;-91
2022/04/18 03:26:47;;;;;;;15.32;9.90;;;;;;;22.66;51.61;98834.77;1791465;80;26878;-91
2022/04/18 03:29:13;;;;;;;15.90;10.13;;;;;;;22.65;51.59;98834.55;1791317;80;25494;-92
2022/04/18 03:31:39;;;;;;;15.83;9.80;;;;;;;22.66;51.61;98832.56;1791296;80;25672;-91
2022/04/18 03:34:05;;;;;;;18.20;10.35;;;;;;;22.65;51.61;98837.34;1791516;80;25697;-87
2022/04/18 03:42:01;;;;;;;17.30;10.05;;;;;;;22.65;51.58;98828.19;1791064;80;25396;-89
2022/04/18 03:44:28;;;;;;;17.05;11.00;;;;;;;22.62;51.58;98824.16;1790908;80;25736;-90
2022/04/18 03:46:54;;;;;;;17.10;10.40;;;;;;;22.62;51.60;98824.16;1791015;80;26479;-82
2022/04/18 03:49:20;;;;;;;18.12;10.82;;;;;;;22.62;51.59;98826.95;1791369;80;25605;-88
2022/04/18 03:51:46;;;;;;;17.05;10.95;;;;;;;22.62;51.57;98824.16;1791587;80;27985;-83
2022/04/18 03:54:12;;;;;;;17.48;10.55;;;;;;;22.63;51.58;98824.97;1791109;80;25603;-88
2022/04/18 03:56:38;;;;;;;15.35;9.95;;;;;;;22.62;51.58;98832.54;1791363;80;25629;-83
2022/04/18 03:59:04;;;;;;;17.23;10.60;;;;;;;22.63;51.59;98829.16;1791408;80;25668;-87
2022/04/18 04:01:30;;;;;;;16.37;10.48;;;;;;;22.62;51.58;98822.77;1791209;79;25703;-82
2022/04/18 04:03:56;;;;;;;16.35;10.15;;;;;;;22.62;51.60;98823.38;1791548;80;27384;-86
2022/04/18 04:06:22;;;;;;;15.35;9.60;;;;;;;22.62;51.59;98819.97;1791357;80;25570;-84
2022/04/18 04:08:48;;;;;;;16.50;10.13;;;;;;;22.61;51.62;98824.55;1791407;80;25597;-82
2022/04/18 04:11:13;;;;;;;16.60;9.60;;;;;;;22.61;51.62;98825.95;1791258;80;25671;-83
2022/04/18 04:13:39;;;;;;;16.70;10.20;;;;;;;22.62;51.60;98821.98;1791509;80;25415;-84
2022/04/18 04:16:05;;;;;;;17.02;10.18;;;;;;;22.62;51.60;98824.78;1791339;80;27435;-83
2022/04/18 04:18:31;;;;;;;16.45;10.25;;;;;;;22.61;51.61;98825.36;1791230;80;25630;-84
2022/04/18 04:20:58;;;;;;;15.90;10.32;;;;;;;22.62;51.60;98824.16;1791398;80;25422;-82
2022/04/18 04:23:24;;;;;;;15.65;9.60;;;;;;;22.63;51.62;98824.97;1791299;80;26496;-82
2022/04/18 04:25:49;;;;;;;15.28;10.45;;;;;;;22.62;51.59;98821.98;1791268;80;25594;-84
2022/04/18 04:28:15;;;;;;;15.65;9.90;;;;;;;22.60;51.64;98812.60;1791272;80;27384;-82
2022/04/18 04:30:41;;;;;;;16.00;10.48;;;;;;;22.60;51.64;98819.58;1791352;80;25691;-93
2022/04/18 04:33:07;;;;;;;16.60;10.58;;;;;;;22.60;51.65;98817.38;1791308;80;25676;-89
2022/04/18 04:35:33;;;;;;;16.70;10.30;;;;;;;22.61;51.64;98818.38;1791473;80;25739;-88
2022/04/18 04:37:59;;;;;;;15.05;9.95;;;;;;;22.61;51.66;98814.19;1791327;80;25582;-89
2022/04/18 04:40:24;;;;;;;18.60;10.98;;;;;;;22.61;51.65;98814.19;1791239;80;27454;-90
2022/04/18 04:42:50;;;;;;;16.15;10.78;;;;;;;22.62;51.63;98813.61;1791270;80;25862;-89
2022/04/18 04:45:16;;;;;;;16.52;10.13;;;;;;;22.61;51.65;98811.40;1791340;80;25697;-89
2022/04/18 04:47:43;;;;;;;15.28;10.13;;;;;;;22.62;51.65;98812.21;1791256;80;25760;-89
2022/04/18 04:50:09;;;;;;;16.35;10.18;;;;;;;22.60;51.65;98810.39;1791036;80;25618;-89
2022/04/18 04:52:38;;;;;;;17.67;10.78;;;;;;;22.62;51.65;98817.17;1791292;80;26793;-88
2022/04/18 04:55:06;;;;;;;15.15;9.55;;;;;;;22.61;51.66;98805.81;1790651;80;25458;-88
2022/04/18 04:57:32;;;;;;;16.15;10.45;;;;;;;22.62;51.66;98809.41;1790836;80;25646;-90
2022/04/18 04:59:58;;;;;;;15.15;9.93;;;;;;;22.61;51.68;98805.00;1791123;80;25745;-90
2022/04/18 05:02:24;;;;;;;17.70;11.43;;;;;;;22.61;51.69;98805.00;1791141;80;25682;-89
2022/04/18 05:05:00;;;;;;;17.82;10.90;;;;;;;22.60;51.69;98800.62;1791269;80;27461;-90
2022/04/18 05:07:33;;;;;;;17.98;10.30;;;;;;;22.61;51.69;98802.21;1761076;80;27817;-86
2022/04/18 05:10:00;;;;;;;14.98;9.93;;;;;;;22.61;51.72;98805.00;1786730;80;25812;-89
2022/04/18 05:12:28;;;;;;;15.20;10.05;;;;;;;22.61;51.73;98803.61;1791008;80;25748;-83
2022/04/18 05:14:54;;;;;;;18.52;10.48;;;;;;;22.59;51.75;98806.79;1790998;80;25673;-83
2022/04/18 05:17:20;;;;;;;17.05;10.23;;;;;;;22.60;51.76;98806.20;1764470;80;28219;-84
2022/04/18 05:19:46;;;;;;;16.10;9.98;;;;;;;22.59;51.76;98804.00;1791175;80;25753;-84
2022/04/18 05:22:12;;;;;;;15.43;10.35;;;;;;;22.61;51.78;98810.59;1791258;80;25637;-86
2022/04/18 05:24:38;;;;;;;16.15;10.68;;;;;;;22.60;51.77;98809.00;1791348;80;25745;-84
2022/04/18 05:27:05;;;;;;;17.37;10.08;;;;;;;22.60;51.78;98801.43;1791247;80;25464;-85
2022/04/18 05:29:31;;;;;;;17.15;10.15;;;;;;;22.61;51.81;98807.21;1791536;80;27424;-86
2022/04/18 05:31:57;;;;;;;15.48;10.13;;;;;;;22.61;51.80;98796.63;1791202;80;25654;-83
2022/04/18 05:34:22;;;;;;;17.48;9.78;;;;;;;22.62;51.81;98798.24;1791473;80;25597;-84
2022/04/18 05:36:48;;;;;;;16.00;10.23;;;;;;;22.62;51.80;98805.23;1791298;80;25574;-83
2022/04/18 05:39:14;;;;;;;16.57;10.60;;;;;;;22.62;51.82;98809.41;1791355;80;25427;-83
2022/04/18 05:41:40;;;;;;;17.20;10.60;;;;;;;22.61;51.83;98812.80;1791385;80;27365;-87
2022/04/18 05:44:06;;;;;;;15.38;9.73;;;;;;;22.62;51.82;98813.61;1788006;80;25653;-85
2022/04/18 05:46:32;;;;;;;17.17;10.75;;;;;;;22.61;51.83;98811.98;1791144;80;25628;-84
2022/04/18 05:48:58;;;;;;;17.65;11.45;;;;;;;22.62;51.78;98815.00;1791184;80;26343;-83
2022/04/18 05:51:24;;;;;;;18.52;11.22;;;;;;;22.62;51.73;98821.37;1791244;80;25458;-82
2022/04/18 05:53:50;;;;;;;18.50;12.03;;;;;;;22.62;51.68;98821.98;1791371;80;27612;-85
2022/04/18 05:56:16;;;;;;;19.50;12.23;;;;;;;22.62;51.63;98822.77;1791390;80;25687;-83
2022/04/18 05:58:42;;;;;;;18.73;11.85;;;;;;;22.62;51.63;98819.97;1791324;80;25494;-83
2022/04/18 06:01:08;;;;;;;21.45;12.43;;;;;;;22.61;51.58;98815.59;1791098;79;25776;-88
2022/04/18 06:03:34;;;;;;;20.92;13.28;;;;;;;22.63;51.55;98815.20;1791335;80;25456;-84
2022/04/18 06:06:00;;;;;;;23.32;13.50;;;;;;;22.63;51.52;98820.78;1791245;80;28229;-88
2022/04/18 06:08:26;;;;;;;25.08;13.90;;;;;;;22.62;51.29;98819.19;1791134;80;25711;-86
2022/04/18 06:10:52;;;;;;;22.93;14.98;;;;;;;22.63;50.68;98824.38;1791351;80;25700;-87
2022/04/18 06:13:19;;;;;;;25.43;14.43;;;;;;;22.65;50.01;98815.61;1791231;80;26625;-86
2022/04/18 06:15:47;;;;;;;27.20;14.90;;;;;;;22.66;49.57;98818.02;1791026;80;25675;-93
2022/04/18 06:18:13;;;;;;;24.18;15.05;;;;;;;22.68;49.53;98818.41;1790861;80;26737;-85
2022/04/18 06:20:39;;;;;;;28.67;15.25;;;;;;;22.68;49.19;98812.81;1791555;80;25894;-85
2022/04/18 06:23:05;;;;;;;26.60;15.68;;;;;;;22.67;49.38;98810.41;1791494;80;25511;-82
2022/04/18 06:25:31;;;;;;;32.90;17.17;;;;;;;22.65;48.90;98803.05;1791555;80;25720;-83
2022/04/18 06:27:57;;;;;;;30.23;17.05;;;;;;;22.64;48.13;98800.84;1791411;80;25501;-84
2022/04/18 06:30:23;;;;;;;28.70;17.30;;;;;;;22.64;47.82;98800.84;1791518;80;28051;-84
2022/04/18 06:32:49;;;;;;;26.10;16.67;;;;;;;22.62;47.38;98802.44;1791298;80;25652;-85
2022/04/18 06:35:20;;;;;;;30.17;17.57;;;;;;;22.62;47.29;98807.41;1791489;80;25440;-85
2022/04/18 06:37:46;;;;;;;27.85;17.60;;;;;;;22.62;46.95;98804.61;1791299;80;26520;-86
2022/04/18 06:40:12;;;;;;;32.45;17.90;;;;;;;22.60;46.75;98803.41;1788471;80;25636;-84
2022/04/18 06:42:37;;;;;;;28.98;18.30;;;;;;;22.59;46.70;98805.39;1791603;80;27376;-85
2022/04/18 06:45:06;;;;;;;29.37;17.60;;;;;;;22.55;46.40;98801.18;1791519;80;25426;-85
2022/04/18 06:47:34;;;;;;;30.05;17.48;;;;;;;22.54;46.37;98793.19;1791282;80;25628;-85
2022/04/18 06:50:00;;;;;;;30.82;17.45;;;;;;;22.56;46.96;98794.98;1764737;80;25734;-85
2022/04/18 06:52:26;;;;;;;31.75;18.25;;;;;;;22.58;47.48;98799.61;1791589;80;25589;-85
2022/04/18 06:54:52;;;;;;;35.60;17.15;;;;;;;22.59;47.86;98798.41;1791576;80;27465;-85
2022/04/18 06:57:21;;;;;;;31.17;17.42;;;;;;;22.62;48.20;98791.27;1791410;80;26059;-85
2022/04/18 06:59:47;;;;;;;35.28;17.35;;;;;;;22.64;48.58;98795.84;1791304;80;25696;-85
2022/04/18 07:02:16;;;;;;;31.27;17.45;;;;;;;22.66;48.88;98790.67;1791194;79;26435;-85
2022/04/18 07:04:42;;;;;;;28.35;17.25;;;;;;;22.66;49.20;98792.06;1791455;80;25657;-85
2022/04/18 07:07:08;;;;;;;31.55;17.15;;;;;;;22.66;49.53;98793.47;1791490;80;28051;-85
2022/04/18 07:09:35;;;;;;;27.27;17.10;;;;;;;22.71;49.79;98785.30;1790937;80;25698;-85
2022/04/18 07:12:05;;;;;;;29.63;17.55;;;;;;;22.76;50.00;98787.70;1790948;80;25586;-84
2022/04/18 07:14:31;;;;;;;34.65;18.65;;;;;;;22.78;50.63;98772.75;1791514;80;25748;-85
2022/04/18 07:16:58;;;;;;;33.45;17.90;;;;;;;22.78;50.63;98772.75;1791194;80;25802;-85
2022/04/18 07:19:24;;;;;;;27.93;17.60;;;;;;;22.87;50.26;98794.72;1791343;78;27415;-85
2022/04/18 07:21:50;;;;;;;30.23;17.90;;;;;;;22.90;50.32;98784.97;1791491;80;25665;-85
2022/04/18 07:24:16;;;;;;;30.12;17.23;;;;;;;22.94;50.31;98789.15;1791399;80;25645;-85
2022/04/18 07:26:43;;;;;;;28.77;17.75;;;;;;;22.97;50.59;98786.96;1791413;80;25749;-85
2022/04/18 07:29:09;;;;;;;33.05;17.85;;;;;;;23.00;50.67;98783.38;1791396;80;25657;-85
2022/04/18 07:31:37;;;;;;;31.30;17.20;;;;;;;23.06;50.86;98782.41;1791408;80;28094;-84
2022/04/18 07:34:04;;;;;;;28.00;16.45;;;;;;;23.12;51.06;98779.44;1790880;80;25684;-84
2022/04/18 07:36:30;;;;;;;28.17;15.65;;;;;;;23.15;51.15;98777.24;1791485;79;25411;-85
2022/04/18 07:38:56;;;;;;;26.37;16.57;;;;;;;23.21;51.32;98776.25;1791277;80;25904;-85
2022/04/18 07:41:29;;;;;;;26.30;16.23;;;;;;;23.25;51.39;98774.25;1791087;78;25669;-84
2022/04/18 07:43:57;;;;;;;28.80;15.53;;;;;;;23.29;51.50;98777.84;1787796;77;27361;-85
2022/04/18 07:46:24;;;;;;;28.15;15.60;;;;;;;23.33;51.52;98766.67;1791316;80;25683;-85
2022/04/18 07:48:52;;;;;;;27.22;15.75;;;;;;;23.39;51.66;98772.69;1791276;80;25482;-85
2022/04/18 07:54:07;;;;;;;23.62;14.30;;;;;;;23.46;51.58;98768.52;1791042;80;25566;-85
2022/04/18 07:56:35;;;;;;;26.87;15.38;;;;;;;23.51;51.59;98770.89;1790763;79;28172;-85
2022/04/18 07:59:02;;;;;;;26.73;15.10;;;;;;;23.54;51.60;98757.52;1791345;80;25582;-85
2022/04/18 08:01:29;;;;;;;24.98;14.35;;;;;;;23.59;51.56;98765.30;1792981;78;25692;-85
2022/04/18 08:03:57;;;;;;;23.83;14.93;;;;;;;23.62;51.58;98758.31;1797944;79;25866;-85
2022/04/18 08:06:23;;;;;;;23.98;15.20;;;;;;;23.65;51.54;98763.11;1797864;79;25771;-85
2022/04/18 08:08:49;;;;;;;22.85;15.18;;;;;;;23.68;51.41;98753.91;1797990;79;27436;-85
2022/04/18 08:11:15;;;;;;;25.77;14.50;;;;;;;23.70;51.40;98756.31;1798046;79;25516;-85
2022/04/18 08:13:47;;;;;;;22.22;14.18;;;;;;;23.71;51.39;98755.09;1797776;79;25707;-86
2022/04/18 08:16:13;;;;;;;24.52;14.70;;;;;;;23.71;51.40;98755.09;1798053;79;25947;-85
2022/04/18 08:18:44;;;;;;;23.27;13.98;;;;;;;23.73;51.34;98755.51;1798206;79;25656;-85
2022/04/18 08:21:14;;;;;;;20.82;13.72;;;;;;;23.73;51.30;98747.11;1797910;79;28261;-85
2022/04/18 08:23:42;;;;;;;21.48;13.08;;;;;;;23.74;51.28;98747.30;1797014;79;29827;-85
2022/04/18 08:26:08;;;;;;;23.73;14.03;;;;;;;23.70;51.29;98738.13;1797885;79;25786;-85
2022/04/18 08:28:35;;;;;;;21.42;13.25;;;;;;;23.74;51.17;98749.30;1798001;79;26692;-86
2022/04/18 08:31:01;;;;;;;25.92;13.75;;;;;;;23.73;51.09;98750.50;1798210;79;25593;-85
2022/04/18 08:33:29;;;;;;;26.60;13.85;;;;;;;23.71;50.44;98745.31;1798272;79;28018;-85
2022/04/18 08:35:57;;;;;;;27.62;14.28;;;;;;;23.68;49.89;98739.92;1797594;79;25648;-86
2022/04/18 08:38:25;;;;;;;25.45;13.88;;;;;;;23.68;49.29;98751.11;1797999;79;25688;-86
2022/04/18 08:40:55;;;;;;;21.05;13.15;;;;;;;23.69;49.17;98744.93;1798006;79;25713;-85
2022/04/18 08:43:22;;;;;;;22.15;14.30;;;;;;;23.68;48.87;98739.12;1798261;79;32313;-85
2022/04/18 08:45:49;;;;;;;24.23;14.03;;;;;;;23.66;47.64;98728.95;1797974;79;26716;-86
2022/04/18 08:53:49;;;;;;;22.58;13.05;;;;;;;23.66;45.94;98730.34;1797735;79;25577;-85
2022/04/18 08:56:15;;;;;;;23.92;12.68;;;;;;;23.64;45.95;98727.14;1798224;79;25696;-86
2022/04/18 08:58:42;;;;;;;21.48;12.80;;;;;;;23.63;46.10;98731.92;1798079;79;28432;-85
2022/04/18 09:01:08;;;;;;;22.15;12.63;;;;;;;23.62;46.18;98723.34;1797918;79;25723;-87
2022/04/18 09:03:39;;;;;;;22.58;12.43;;;;;;;23.61;46.31;98723.75;1797967;79;25764;-85
2022/04/18 09:06:10;;;;;;;22.25;11.57;;;;;;;23.61;46.80;98719.55;1797622;79;25732;-84
2022/04/18 09:08:52;;;;;;;17.90;11.05;;;;;;;23.60;46.38;98720.14;1797780;79;25408;-84
2022/04/18 09:11:33;;;;;;;22.10;11.12;;;;;;;23.58;45.18;98707.77;1797695;79;27404;-85
2022/04/18 09:14:13;;;;;;;19.60;10.95;;;;;;;23.55;45.13;98711.55;1792236;79;25447;-84
2022/04/18 09:16:41;;;;;;;20.25;10.70;;;;;;;23.52;45.49;98711.58;1797552;79;30042;-84
2022/04/18 09:19:14;;;;;;;20.25;10.30;;;;;;;23.53;45.55;98706.17;1798038;79;26521;-86
2022/04/18 09:21:59;;;;;;;18.05;10.43;;;;;;;23.54;45.85;98721.16;1798197;79;25692;-86
2022/04/18 09:24:32;;;;;;;19.65;10.70;;;;;;;23.52;46.20;98711.58;1798236;79;27415;-84
2022/04/18 09:27:16;;;;;;;20.50;10.48;;;;;;;23.50;46.36;98700.79;1797874;79;25724;-85
2022/04/18 09:29:42;;;;;;;18.10;9.63;;;;;;;23.52;46.49;98707.38;1789067;78;25777;-85
2022/04/18 09:32:12;;;;;;;17.07;9.55;;;;;;;23.53;46.68;98708.38;1798050;79;25715;-85
2022/04/18 09:34:40;;;;;;;18.92;9.85;;;;;;;23.54;46.94;98712.77;1798038;79;25441;-85
2022/04/18 09:37:17;;;;;;;15.28;9.45;;;;;;;23.53;47.33;98712.58;1794625;79;27464;-85
2022/04/18 09:39:53;;;;;;;14.10;9.53;;;;;;;23.54;47.64;98713.35;1797869;79;25656;-85
2022/04/18 09:42:23;;;;;;;16.57;9.30;;;;;;;23.53;47.91;98713.97;1797997;79;25476;-85
2022/04/18 09:44:50;;;;;;;17.20;9.73;;;;;;;23.55;48.24;98706.58;1798150;79;25739;-86
2022/04/18 09:47:21;;;;;;;17.57;9.93;;;;;;;23.55;48.41;98709.38;1797930;79;25579;-85
2022/04/18 09:49:48;;;;;;;18.73;9.85;;;;;;;23.56;48.62;98703.97;1796216;78;28432;-85
2022/04/18 09:52:20;;;;;;;17.20;9.90;;;;;;;23.55;48.65;98700.98;1797865;79;25955;-86
2022/04/18 09:54:58;;;;;;;17.98;9.78;;;;;;;23.55;48.70;98703.16;1798080;79;25415;-85
2022/04/18 09:57:30;;;;;;;15.30;9.40;;;;;;;23.56;48.74;98696.98;1797756;79;25793;-84
2022/04/18 09:59:59;;;;;;;14.63;9.78;;;;;;;23.56;48.78;98692.78;1798286;79;25671;-85
2022/04/18 10:02:27;;;;;;;18.32;10.50;;;;;;;23.58;48.77;98690.39;1795282;79;28310;-85
2022/04/18 10:04:54;;;;;;;15.53;9.68;;;;;;;23.55;48.71;98679.39;1791132;80;25853;-85
2022/04/18 10:07:22;;;;;;;16.75;9.88;;;;;;;23.54;48.66;98676.41;1791386;80;25407;-85
2022/04/18 10:09:49;;;;;;;13.70;8.85;;;;;;;23.56;48.58;98681.59;1791564;80;25897;-84
2022/04/18 10:12:16;;;;;;;15.63;9.25;;;;;;;23.55;48.54;98681.41;1791620;80;25569;-84
2022/04/18 10:14:44;;;;;;;15.60;9.60;;;;;;;23.54;48.41;98683.98;1791159;80;28226;-84
2022/04/18 10:17:12;;;;;;;14.47;9.80;;;;;;;23.53;48.38;98687.99;1791486;80;25763;-85
2022/04/18 10:20:14;;;;;;;18.07;9.60;;;;;;;23.53;48.35;98676.80;1791429;80;25605;-85
2022/04/18 10:23:18;;;;;;;16.35;9.40;;;;;;;23.51;48.25;98672.20;1791221;80;25786;-84
2022/04/18 10:26:36;;;;;;;16.45;9.00;;;;;;;23.50;48.21;98674.81;1791289;80;25444;-85
2022/04/18 10:29:07;;;;;;;16.25;9.23;;;;;;;23.48;48.13;98671.61;1791329;80;27442;-87
2022/04/18 10:31:39;;;;;;;15.38;9.25;;;;;;;23.47;47.98;98677.82;1791311;80;25427;-85
2022/04/18 10:34:13;;;;;;;16.48;9.35;;;;;;;23.47;48.08;98676.42;1788174;78;25681;-88
2022/04/18 10:36:49;;;;;;;15.55;8.73;;;;;;;23.45;48.28;98671.05;1789771;80;26545;-87
2022/04/18 10:39:16;;;;;;;15.38;8.95;;;;;;;23.42;48.28;98669.23;1791385;80;25593;-85
2022/04/18 10:41:51;;;;;;;14.43;8.70;;;;;;;23.40;48.31;98665.25;1791538;80;27345;-85
2022/04/18 10:44:20;;;;;;;14.43;8.70;;;;;;;23.40;48.39;98666.66;1790978;80;25996;-84
2022/04/18 10:46:55;;;;;;;15.38;8.45;;;;;;;23.40;48.47;98663.86;1791512;80;25641;-84
2022/04/18 10:49:24;;;;;;;13.83;7.70;;;;;;;23.39;48.61;98663.05;1790824;80;25763;-84
2022/04/18 10:51:53;;;;;;;17.50;8.70;;;;;;;23.39;48.71;98660.84;1785236;80;25459;-85
2022/04/18 10:54:25;;;;;;;15.55;8.40;;;;;;;23.35;48.76;98658.04;1785040;80;28293;-85
2022/04/18 10:57:12;;;;;;;15.68;8.40;;;;;;;23.35;48.76;98655.23;1784920;79;25628;-84
2022/04/18 10:59:46;;;;;;;13.48;8.28;;;;;;;23.35;48.86;98651.64;1784071;80;25756;-84
2022/04/18 11:02:44;;;;;;;15.70;7.90;;;;;;;23.34;48.92;98639.64;1784875;80;25686;-85
2022/04/18 11:05:11;;;;;;;16.87;8.33;;;;;;;23.34;48.98;98636.07;1785826;80;25585;-84
2022/04/18 11:07:44;;;;;;;14.05;8.10;;;;;;;23.34;49.01;98627.69;1785961;80;28182;-84
2022/04/18 11:10:24;;;;;;;13.28;8.15;;;;;;;23.36;49.04;98626.66;1785687;80;25806;-84
2022/04/18 11:12:57;;;;;;;14.35;8.03;;;;;;;23.36;49.09;98620.48;1786276;80;25423;-84
2022/04/18 11:15:24;;;;;;;14.50;7.65;;;;;;;23.36;49.17;98630.27;1785226;80;26697;-85
2022/04/18 11:17:51;;;;;;;12.78;7.75;;;;;;;23.36;49.20;98621.87;1786155;80;25435;-84
2022/04/18 11:20:37;;;;;;;12.13;7.58;;;;;;;23.35;49.24;98620.30;1786315;80;27430;-85
2022/04/18 11:23:25;;;;;;;12.90;7.65;;;;;;;23.38;49.26;98620.92;1786049;80;25653;-84
2022/04/18 11:26:04;;;;;;;12.45;7.62;;;;;;;23.37;49.32;98613.71;1785819;80;25712;-84
2022/04/18 11:28:39;;;;;;;12.20;7.47;;;;;;;23.36;49.34;98606.50;1785989;80;25688;-85
2022/04/18 11:31:12;;;;;;;12.68;7.12;;;;;;;23.37;49.34;98607.31;1785759;80;25577;-84
2022/04/18 11:33:42;;;;;;;12.15;7.47;;;;;;;23.37;49.35;98601.72;1785090;80;27442;-85
2022/04/18 11:36:10;;;;;;;12.77;7.43;;;;;;;23.36;49.38;98603.70;1786299;80;25852;-85
2022/04/18 11:38:37;;;;;;;12.93;6.70;;;;;;;23.37;49.37;98603.92;1786068;80;25423;-86
2022/04/18 11:41:13;;;;;;;15.83;7.22;;;;;;;23.37;49.35;98591.34;1786176;80;25717;-87
2022/04/18 11:43:40;;;;;;;12.00;7.12;;;;;;;23.38;49.36;98596.34;1783695;80;25904;-87